Orenge 7 — JL6148 — position and weather

sailwx.info

Track history (hours):
 
Tides and Currents Weather Stations Pressure Air Temp Water Temp Dewpoint Dewpoint Depression Visibility Wind Speed Wind Dir Waves Ship Positions

Orenge 7

Last reported at 2016-May-24 14:34 UTC. Time now 2016-May-25 18:41 UTC.
Position N 34°36' E 134°55'.

Length 163 m; draft 4.9 m.

Type: Passenger vessel. MMSI: 431500186.

Date/timePositionNaut miles runAvg speedWind from/ knotsBaromVisibWave heightAir tempDewpointWater temp
2016-May-24 14:34N 34°36' E 134°55'2020.0
2016-May-24 13:33N 34°37' E 135°19'6 2.5
2016-May-24 11:15N 34°37' E 135°26'0 0.0
2016-May-24 10:21N 34°37' E 135°26'0 0.0
2016-May-24 09:33N 34°37' E 135°26'0 0.0
2016-May-24 08:33N 34°37' E 135°26'0 0.0
2016-May-24 07:33N 34°37' E 135°26'0 0.0
2016-May-24 06:33N 34°37' E 135°26'0 0.0
2016-May-24 04:21N 34°37' E 135°26'0 0.0
2016-May-24 03:27N 34°37' E 135°26'0 0.0
2016-May-24 02:33N 34°37' E 135°26'0 0.0
2016-May-24 01:33N 34°37' E 135°26'0 0.0
2016-May-24 00:33N 34°37' E 135°26'0 0.0
2016-May-23 23:27N 34°37' E 135°26'0 0.0
2016-May-23 22:27N 34°37' E 135°26'0 0.0
2016-May-23 21:33N 34°37' E 135°26'6 5.6
2016-May-23 20:33N 34°36' E 135°19'1717.5
2016-May-23 19:33N 34°37' E 134°58'3 0.1
2016-May-22 14:33N 34°36' E 134°55'1919.2
2016-May-22 13:33N 34°37' E 135°18'7 2.2
2016-May-22 10:34N 34°37' E 135°26'0 0.0
2016-May-22 09:16N 34°37' E 135°26'0 0.0
2016-May-22 08:34N 34°37' E 135°26'0 0.0
2016-May-22 07:28N 34°37' E 135°26'0 0.0
2016-May-22 06:22N 34°37' E 135°26'0 0.0
2016-May-22 05:33N 34°37' E 135°26'0 0.0
2016-May-22 04:27N 34°37' E 135°26'0 0.0
2016-May-22 03:27N 34°37' E 135°26'0 0.0
2016-May-22 02:33N 34°37' E 135°26'0 0.0
2016-May-22 01:34N 34°37' E 135°26'0 0.0
2016-May-22 00:33N 34°37' E 135°26'0 0.0
2016-May-21 23:22N 34°37' E 135°26'0 0.0
2016-May-21 22:22N 34°37' E 135°26'0 0.0
2016-May-21 21:22N 34°37' E 135°26'6 7.0
2016-May-21 20:33N 34°36' E 135°19'1818.0
2016-May-21 19:34N 34°37' E 134°58'1 0.0
2016-May-20 14:33N 34°37' E 134°57'1818.1
2016-May-20 13:33N 34°37' E 135°19'6 5.8
2016-May-20 12:32N 34°37' E 135°26'0 0.0
2016-May-20 11:32N 34°37' E 135°26'0 0.0
2016-May-20 09:32N 34°37' E 135°26'0 0.0
2016-May-20 08:32N 34°37' E 135°26'0 0.0
2016-May-20 07:32N 34°37' E 135°26'0 0.0
2016-May-20 06:32N 34°37' E 135°26'0 0.0
2016-May-20 03:32N 34°37' E 135°26'0 0.0
2016-May-20 02:32N 34°37' E 135°26'0 0.0
2016-May-20 01:20N 34°37' E 135°26'0 0.0
2016-May-20 00:32N 34°37' E 135°26'0 0.0
2016-May-19 23:32N 34°37' E 135°26'0 0.0
2016-May-19 22:32N 34°37' E 135°26'0 0.0
2016-May-19 21:32N 34°37' E 135°26'5 5.5
2016-May-19 20:33N 34°36' E 135°20'1717.1
2016-May-19 19:33N 34°37' E 134°59'2 0.1
2016-May-18 14:33N 34°37' E 134°57'1817.6
2016-May-18 13:33N 34°37' E 135°18'6 1.5
2016-May-18 09:17N 34°37' E 135°26'0 0.0
2016-May-18 06:23N 34°37' E 135°26'0 0.0
2016-May-18 05:29N 34°37' E 135°26'0 0.0
2016-May-18 04:23N 34°37' E 135°26'0 0.0
2016-May-18 03:29N 34°37' E 135°26'0 0.0
2016-May-18 02:29N 34°37' E 135°26'0 0.0
2016-May-18 01:17N 34°37' E 135°26'0 0.0
2016-May-18 00:29N 34°37' E 135°26'0 0.0
2016-May-17 23:29N 34°37' E 135°26'0 0.0
2016-May-17 22:23N 34°37' E 135°26'0 0.0
2016-May-17 21:29N 34°37' E 135°26'5 5.8
2016-May-17 20:33N 34°36' E 135°20'1717.5
2016-May-17 19:33N 34°37' E 134°58'1 0.0
2016-May-16 14:33N 34°37' E 134°57'1818.0
2016-May-16 13:33N 34°37' E 135°19'5 5.1
2016-May-16 12:30N 34°37' E 135°26'0 0.0
2016-May-16 11:24N 34°37' E 135°26'0 0.0
2016-May-16 10:24N 34°37' E 135°26'0 0.0
2016-May-16 09:30N 34°37' E 135°26'0 0.0
2016-May-16 08:30N 34°37' E 135°26'0 0.0
2016-May-16 07:24N 34°37' E 135°26'0 0.0
2016-May-16 06:30N 34°37' E 135°26'0 0.0
2016-May-16 05:24N 34°37' E 135°26'0 0.0
2016-May-16 04:30N 34°37' E 135°26'0 0.0
2016-May-16 03:30N 34°37' E 135°26'0 0.0
2016-May-16 02:30N 34°37' E 135°26'0 0.0
2016-May-16 01:30N 34°37' E 135°26'0 0.0
2016-May-16 00:06N 34°37' E 135°26'0 0.0
2016-May-15 23:24N 34°37' E 135°26'0 0.0
2016-May-15 22:24N 34°37' E 135°26'0 0.0
2016-May-15 21:30N 34°37' E 135°26'5 5.3
2016-May-15 20:33N 34°36' E 135°20'1717.4
2016-May-15 19:33N 34°37' E 134°59'  
Track history (hours):
 
Tides and Currents Weather Stations Pressure Air Temp Water Temp Dewpoint Dewpoint Depression Visibility Wind Speed Wind Dir Waves Ship Positions

Orenge 7

Last reported at 2016-May-24 14:34 UTC. Time now 2016-May-25 18:41 UTC.
Position N 34°36' E 134°55'.

Length 163 m; draft 4.9 m.

Type: Passenger vessel. MMSI: 431500186.

Date/timePositionNaut miles runAvg speedWind from/ knotsBaromVisibWave heightAir tempDewpointWater temp
2016-May-24 14:34N 34°36' E 134°55'2020.0
2016-May-24 13:33N 34°37' E 135°19'6 2.5
2016-May-24 11:15N 34°37' E 135°26'0 0.0
2016-May-24 10:21N 34°37' E 135°26'0 0.0
2016-May-24 09:33N 34°37' E 135°26'0 0.0
2016-May-24 08:33N 34°37' E 135°26'0 0.0
2016-May-24 07:33N 34°37' E 135°26'0 0.0
2016-May-24 06:33N 34°37' E 135°26'0 0.0
2016-May-24 04:21N 34°37' E 135°26'0 0.0
2016-May-24 03:27N 34°37' E 135°26'0 0.0
2016-May-24 02:33N 34°37' E 135°26'0 0.0
2016-May-24 01:33N 34°37' E 135°26'0 0.0
2016-May-24 00:33N 34°37' E 135°26'0 0.0
2016-May-23 23:27N 34°37' E 135°26'0 0.0
2016-May-23 22:27N 34°37' E 135°26'0 0.0
2016-May-23 21:33N 34°37' E 135°26'6 5.6
2016-May-23 20:33N 34°36' E 135°19'1717.5
2016-May-23 19:33N 34°37' E 134°58'3 0.1
2016-May-22 14:33N 34°36' E 134°55'1919.2
2016-May-22 13:33N 34°37' E 135°18'7 2.2
2016-May-22 10:34N 34°37' E 135°26'0 0.0
2016-May-22 09:16N 34°37' E 135°26'0 0.0
2016-May-22 08:34N 34°37' E 135°26'0 0.0
2016-May-22 07:28N 34°37' E 135°26'0 0.0
2016-May-22 06:22N 34°37' E 135°26'0 0.0
2016-May-22 05:33N 34°37' E 135°26'0 0.0
2016-May-22 04:27N 34°37' E 135°26'0 0.0
2016-May-22 03:27N 34°37' E 135°26'0 0.0
2016-May-22 02:33N 34°37' E 135°26'0 0.0
2016-May-22 01:34N 34°37' E 135°26'0 0.0
2016-May-22 00:33N 34°37' E 135°26'0 0.0
2016-May-21 23:22N 34°37' E 135°26'0 0.0
2016-May-21 22:22N 34°37' E 135°26'0 0.0
2016-May-21 21:22N 34°37' E 135°26'6 7.0
2016-May-21 20:33N 34°36' E 135°19'1818.0
2016-May-21 19:34N 34°37' E 134°58'1 0.0
2016-May-20 14:33N 34°37' E 134°57'1818.1
2016-May-20 13:33N 34°37' E 135°19'6 5.8
2016-May-20 12:32N 34°37' E 135°26'0 0.0
2016-May-20 11:32N 34°37' E 135°26'0 0.0
2016-May-20 09:32N 34°37' E 135°26'0 0.0
2016-May-20 08:32N 34°37' E 135°26'0 0.0
2016-May-20 07:32N 34°37' E 135°26'0 0.0
2016-May-20 06:32N 34°37' E 135°26'0 0.0
2016-May-20 03:32N 34°37' E 135°26'0 0.0
2016-May-20 02:32N 34°37' E 135°26'0 0.0
2016-May-20 01:20N 34°37' E 135°26'0 0.0
2016-May-20 00:32N 34°37' E 135°26'0 0.0
2016-May-19 23:32N 34°37' E 135°26'0 0.0
2016-May-19 22:32N 34°37' E 135°26'0 0.0
2016-May-19 21:32N 34°37' E 135°26'5 5.5
2016-May-19 20:33N 34°36' E 135°20'1717.1
2016-May-19 19:33N 34°37' E 134°59'2 0.1
2016-May-18 14:33N 34°37' E 134°57'1817.6
2016-May-18 13:33N 34°37' E 135°18'6 1.5
2016-May-18 09:17N 34°37' E 135°26'0 0.0
2016-May-18 06:23N 34°37' E 135°26'0 0.0
2016-May-18 05:29N 34°37' E 135°26'0 0.0
2016-May-18 04:23N 34°37' E 135°26'0 0.0
2016-May-18 03:29N 34°37' E 135°26'0 0.0
2016-May-18 02:29N 34°37' E 135°26'0 0.0
2016-May-18 01:17N 34°37' E 135°26'0 0.0
2016-May-18 00:29N 34°37' E 135°26'0 0.0
2016-May-17 23:29N 34°37' E 135°26'0 0.0
2016-May-17 22:23N 34°37' E 135°26'0 0.0
2016-May-17 21:29N 34°37' E 135°26'5 5.8
2016-May-17 20:33N 34°36' E 135°20'1717.5
2016-May-17 19:33N 34°37' E 134°58'1 0.0
2016-May-16 14:33N 34°37' E 134°57'1818.0
2016-May-16 13:33N 34°37' E 135°19'5 5.1
2016-May-16 12:30N 34°37' E 135°26'0 0.0
2016-May-16 11:24N 34°37' E 135°26'0 0.0
2016-May-16 10:24N 34°37' E 135°26'0 0.0
2016-May-16 09:30N 34°37' E 135°26'0 0.0
2016-May-16 08:30N 34°37' E 135°26'0 0.0
2016-May-16 07:24N 34°37' E 135°26'0 0.0
2016-May-16 06:30N 34°37' E 135°26'0 0.0
2016-May-16 05:24N 34°37' E 135°26'0 0.0
2016-May-16 04:30N 34°37' E 135°26'0 0.0
2016-May-16 03:30N 34°37' E 135°26'0 0.0
2016-May-16 02:30N 34°37' E 135°26'0 0.0
2016-May-16 01:30N 34°37' E 135°26'0 0.0
2016-May-16 00:06N 34°37' E 135°26'0 0.0
2016-May-15 23:24N 34°37' E 135°26'0 0.0
2016-May-15 22:24N 34°37' E 135°26'0 0.0
2016-May-15 21:30N 34°37' E 135°26'5 5.3
2016-May-15 20:33N 34°36' E 135°20'1717.4
2016-May-15 19:33N 34°37' E 134°59'  

Dump ship's entire track history